Time;durP1;ratioP1;P1;durP2;ratioP2;P2;SDS_P1;SDS_P2;PMS_P1;PMS_P2;Temp;Humidity;BMP_temperature;BMP_pressure;BME280_temperature;BME280_humidity;BME280_pressure;Samples;Min_cycle;Max_cycle;Signal;HPM_P1;HPM_P2
2020/12/24 00:01:18;;;;;;;3.30;1.47;;;;;;;;;;5094214;28;20467;-75
2020/12/24 00:03:44;;;;;;;3.30;1.53;;;;;;;;;;5092594;28;20911;-76
2020/12/24 00:06:10;;;;;;;2.30;1.30;;;;;;;;;;5094356;28;20476;-76
2020/12/24 00:08:36;;;;;;;1.70;1.40;;;;;;;;;;5092924;28;20884;-76
2020/12/24 00:11:03;;;;;;;1.80;1.20;;;;;;;;;;5075784;28;20400;-76
2020/12/24 00:13:29;;;;;;;1.87;1.40;;;;;;;;;;5088179;28;20428;-78
2020/12/24 00:15:55;;;;;;;1.60;1.10;;;;;;;;;;5093783;28;20943;-76
2020/12/24 00:18:21;;;;;;;2.57;1.80;;;;;;;;;;5093773;28;20400;-76
2020/12/24 00:20:47;;;;;;;3.27;1.50;;;;;;;;;;5092774;28;20462;-76
2020/12/24 00:23:14;;;;;;;2.57;1.30;;;;;;;;;;5093789;28;20396;-76
2020/12/24 00:25:40;;;;;;;2.03;1.10;;;;;;;;;;5093421;28;20436;-76
2020/12/24 00:28:07;;;;;;;1.97;1.03;;;;;;;;;;5075583;28;20423;-76
2020/12/24 00:30:33;;;;;;;6.43;2.20;;;;;;;;;;5092672;28;20424;-76
2020/12/24 00:32:59;;;;;;;1.40;1.03;;;;;;;;;;5074734;28;20500;-76
2020/12/24 00:35:25;;;;;;;2.20;1.40;;;;;;;;;;5092200;28;20472;-78
2020/12/24 00:37:51;;;;;;;1.60;1.10;;;;;;;;;;5075044;28;20772;-76
2020/12/24 00:40:17;;;;;;;1.83;1.40;;;;;;;;;;5093291;28;20458;-76
2020/12/24 00:42:43;;;;;;;1.70;1.10;;;;;;;;;;5092814;28;20404;-76
2020/12/24 00:45:09;;;;;;;2.57;1.13;;;;;;;;;;5091351;28;20953;-76
2020/12/24 00:47:35;;;;;;;2.03;1.07;;;;;;;;;;5093383;28;20435;-76
2020/12/24 00:50:01;;;;;;;4.27;1.37;;;;;;;;;;5080978;28;20441;-76
2020/12/24 00:52:27;;;;;;;3.53;1.20;;;;;;;;;;5073384;28;20511;-76
2020/12/24 00:54:53;;;;;;;1.50;0.80;;;;;;;;;;5083385;28;20497;-76
2020/12/24 00:57:19;;;;;;;2.60;1.17;;;;;;;;;;5093164;28;20764;-76
2020/12/24 00:59:45;;;;;;;1.40;0.90;;;;;;;;;;5092488;28;20423;-76
2020/12/24 01:02:11;;;;;;;1.77;1.13;;;;;;;;;;5093719;28;20427;-76
2020/12/24 01:04:37;;;;;;;3.50;1.47;;;;;;;;;;5092072;28;20959;-76
2020/12/24 01:07:03;;;;;;;3.30;1.30;;;;;;;;;;5093558;28;20415;-76
2020/12/24 01:09:29;;;;;;;1.50;1.10;;;;;;;;;;5092177;28;21005;-76
2020/12/24 01:11:55;;;;;;;2.23;1.43;;;;;;;;;;5093148;28;20439;-76
2020/12/24 01:14:21;;;;;;;2.03;1.00;;;;;;;;;;5072547;28;20503;-76
2020/12/24 01:16:47;;;;;;;2.10;1.40;;;;;;;;;;5092125;28;20435;-76
2020/12/24 01:19:13;;;;;;;1.70;1.30;;;;;;;;;;5091989;28;20466;-76
2020/12/24 01:21:44;;;;;;;2.80;1.80;;;;;;;;;;5093233;28;20452;-76
2020/12/24 01:24:10;;;;;;;2.53;1.57;;;;;;;;;;5092064;28;20432;-76
2020/12/24 01:26:36;;;;;;;2.03;1.50;;;;;;;;;;5092997;28;20388;-76
2020/12/24 01:29:02;;;;;;;1.57;1.07;;;;;;;;;;5092225;28;20808;-76
2020/12/24 01:31:28;;;;;;;1.70;1.37;;;;;;;;;;5092868;28;20428;-76
2020/12/24 01:33:54;;;;;;;2.00;1.23;;;;;;;;;;5091931;28;20422;-76
2020/12/24 01:36:21;;;;;;;2.13;1.50;;;;;;;;;;5092992;28;20411;-76
2020/12/24 01:38:47;;;;;;;1.80;1.50;;;;;;;;;;5092910;28;20443;-76
2020/12/24 01:41:13;;;;;;;2.50;1.67;;;;;;;;;;5091741;28;20455;-76
2020/12/24 01:43:39;;;;;;;3.50;1.77;;;;;;;;;;5093931;28;20400;-76
2020/12/24 01:46:05;;;;;;;3.20;1.70;;;;;;;;;;5095782;28;20467;-76
2020/12/24 01:48:31;;;;;;;2.90;1.90;;;;;;;;;;5095519;28;20885;-77
2020/12/24 01:50:57;;;;;;;2.93;1.90;;;;;;;;;;5095564;28;20452;-76
2020/12/24 01:53:24;;;;;;;2.27;1.67;;;;;;;;;;5096545;28;20412;-76
2020/12/24 01:55:51;;;;;;;3.07;1.53;;;;;;;;;;5094664;28;20444;-75
2020/12/24 01:58:17;;;;;;;1.90;1.60;;;;;;;;;;5096471;28;20499;-76
2020/12/24 02:00:46;;;;;;;2.67;1.77;;;;;;;;;;5095421;28;20455;-76
2020/12/24 02:03:12;;;;;;;3.00;2.20;;;;;;;;;;5096405;28;20401;-76
2020/12/24 02:05:38;;;;;;;3.37;2.03;;;;;;;;;;5095356;28;20853;-76
2020/12/24 02:08:04;;;;;;;2.63;2.00;;;;;;;;;;5096286;28;20945;-76
2020/12/24 02:10:30;;;;;;;4.93;1.80;;;;;;;;;;5095235;28;20420;-76
2020/12/24 02:12:56;;;;;;;2.40;2.20;;;;;;;;;;5096119;28;20496;-76
2020/12/24 02:15:22;;;;;;;2.20;1.80;;;;;;;;;;5093879;28;20944;-74
2020/12/24 02:17:48;;;;;;;2.40;2.00;;;;;;;;;;5092973;28;20432;-74
2020/12/24 02:20:14;;;;;;;3.17;2.30;;;;;;;;;;5095576;28;20538;-74
2020/12/24 02:22:40;;;;;;;3.30;2.00;;;;;;;;;;5095955;28;20410;-75
2020/12/24 02:25:06;;;;;;;3.70;1.97;;;;;;;;;;5094736;28;20445;-74
2020/12/24 02:27:32;;;;;;;3.00;1.90;;;;;;;;;;5094839;28;20424;-75
2020/12/24 02:30:01;;;;;;;4.70;2.60;;;;;;;;;;5094785;28;20399;-74
2020/12/24 02:32:28;;;;;;;5.00;1.70;;;;;;;;;;5096040;28;20401;-75
2020/12/24 02:34:55;;;;;;;2.83;1.60;;;;;;;;;;5094608;28;20423;-74
2020/12/24 02:37:21;;;;;;;2.50;1.90;;;;;;;;;;5093804;28;20407;-74
2020/12/24 02:39:48;;;;;;;2.10;1.60;;;;;;;;;;5094957;28;20405;-75
2020/12/24 02:42:14;;;;;;;2.43;2.07;;;;;;;;;;5095267;28;20424;-75
2020/12/24 02:44:40;;;;;;;2.37;1.67;;;;;;;;;;5095552;28;20497;-75
2020/12/24 02:47:06;;;;;;;4.17;2.30;;;;;;;;;;5094418;28;20430;-75
2020/12/24 02:49:32;;;;;;;3.77;2.30;;;;;;;;;;5095777;28;20404;-75
2020/12/24 02:51:58;;;;;;;2.40;1.70;;;;;;;;;;5095134;28;20463;-75
2020/12/24 02:54:24;;;;;;;4.10;2.30;;;;;;;;;;5095749;28;20423;-76
2020/12/24 02:56:54;;;;;;;2.80;1.80;;;;;;;;;;5093573;28;20425;-75
2020/12/24 02:59:20;;;;;;;3.60;2.23;;;;;;;;;;5093946;28;20416;-75
2020/12/24 03:01:46;;;;;;;2.17;1.53;;;;;;;;;;5093110;28;20454;-75
2020/12/24 03:04:12;;;;;;;2.70;2.07;;;;;;;;;;5095155;28;20899;-76
2020/12/24 03:06:38;;;;;;;2.23;1.50;;;;;;;;;;5093289;28;20420;-75
2020/12/24 03:09:04;;;;;;;1.63;1.43;;;;;;;;;;5095251;28;20599;-75
2020/12/24 03:11:30;;;;;;;2.27;1.40;;;;;;;;;;5092957;28;20867;-75
2020/12/24 03:13:56;;;;;;;1.87;1.43;;;;;;;;;;5094897;28;20493;-76
2020/12/24 03:16:22;;;;;;;1.70;1.20;;;;;;;;;;5092484;28;20460;-75
2020/12/24 03:18:48;;;;;;;2.13;1.27;;;;;;;;;;5090092;28;20412;-75
2020/12/24 03:21:14;;;;;;;1.80;1.40;;;;;;;;;;5093837;28;20454;-75
2020/12/24 03:23:40;;;;;;;1.70;1.33;;;;;;;;;;5095069;28;20404;-76
2020/12/24 03:26:06;;;;;;;3.63;2.10;;;;;;;;;;5099065;28;20420;-75
2020/12/24 03:28:32;;;;;;;2.07;1.50;;;;;;;;;;5104947;28;20869;-75
2020/12/24 03:30:58;;;;;;;2.40;1.50;;;;;;;;;;5105157;28;20428;-75
2020/12/24 03:33:24;;;;;;;1.60;1.00;;;;;;;;;;5102882;28;20481;-76
2020/12/24 03:35:50;;;;;;;1.60;1.30;;;;;;;;;;5095490;28;20531;-74
2020/12/24 03:38:16;;;;;;;1.80;1.13;;;;;;;;;;5094953;28;20412;-76
2020/12/24 03:40:42;;;;;;;1.60;1.10;;;;;;;;;;5094242;28;20454;-75
2020/12/24 03:43:08;;;;;;;1.20;0.90;;;;;;;;;;5094916;28;20415;-75
2020/12/24 03:45:34;;;;;;;1.53;0.97;;;;;;;;;;5094477;28;20424;-75
2020/12/24 03:48:00;;;;;;;1.53;1.00;;;;;;;;;;5093469;28;20503;-75
2020/12/24 03:50:26;;;;;;;1.40;0.93;;;;;;;;;;5076254;28;20904;-75
2020/12/24 03:52:52;;;;;;;1.50;1.03;;;;;;;;;;5093608;28;20480;-75
2020/12/24 03:55:18;;;;;;;1.30;0.83;;;;;;;;;;5094180;28;20425;-75
2020/12/24 03:57:44;;;;;;;1.40;0.90;;;;;;;;;;5093491;28;20437;-75
2020/12/24 04:00:10;;;;;;;1.40;0.83;;;;;;;;;;5094333;28;20401;-75
2020/12/24 04:02:36;;;;;;;1.20;0.70;;;;;;;;;;5093629;28;20934;-74
2020/12/24 04:05:02;;;;;;;2.50;0.80;;;;;;;;;;5094281;28;20424;-75
2020/12/24 04:07:28;;;;;;;1.77;0.90;;;;;;;;;;5092033;28;20988;-74
2020/12/24 04:09:54;;;;;;;1.50;0.87;;;;;;;;;;5092313;28;20515;-75
2020/12/24 04:12:19;;;;;;;2.90;1.00;;;;;;;;;;5092186;28;20915;-74
2020/12/24 04:14:45;;;;;;;1.40;0.77;;;;;;;;;;5093787;28;20440;-75
2020/12/24 04:17:11;;;;;;;1.20;0.70;;;;;;;;;;5092881;28;20904;-74
2020/12/24 04:19:37;;;;;;;1.20;0.80;;;;;;;;;;5090289;28;20423;-74
2020/12/24 04:22:03;;;;;;;1.40;0.80;;;;;;;;;;5093397;28;20455;-75
2020/12/24 04:24:29;;;;;;;1.20;0.73;;;;;;;;;;5095136;28;20428;-75
2020/12/24 04:26:56;;;;;;;1.27;0.83;;;;;;;;;;5093249;28;20451;-75
2020/12/24 04:29:22;;;;;;;1.50;0.90;;;;;;;;;;5093860;28;20491;-75
2020/12/24 04:31:48;;;;;;;1.30;0.90;;;;;;;;;;5093256;28;20499;-74
2020/12/24 04:34:14;;;;;;;1.33;0.80;;;;;;;;;;5092576;28;20472;-74
2020/12/24 04:36:40;;;;;;;1.20;0.70;;;;;;;;;;5091760;28;20423;-75
2020/12/24 04:39:06;;;;;;;1.20;0.70;;;;;;;;;;5093590;28;20744;-75
2020/12/24 04:41:32;;;;;;;1.20;0.70;;;;;;;;;;5092627;28;20488;-74
2020/12/24 04:43:58;;;;;;;1.47;1.00;;;;;;;;;;5093391;28;20417;-75
2020/12/24 04:46:27;;;;;;;1.30;0.80;;;;;;;;;;5074389;28;21015;-74
2020/12/24 04:48:54;;;;;;;2.90;0.83;;;;;;;;;;5093488;28;20868;-75
2020/12/24 04:51:22;;;;;;;1.20;0.70;;;;;;;;;;5092328;28;20955;-74
2020/12/24 04:53:48;;;;;;;1.40;0.80;;;;;;;;;;5093671;28;20557;-75
2020/12/24 04:56:14;;;;;;;2.13;0.80;;;;;;;;;;5091774;28;20423;-74
2020/12/24 04:58:42;;;;;;;1.20;0.77;;;;;;;;;;5093226;28;20410;-75
2020/12/24 05:01:11;;;;;;;1.90;0.73;;;;;;;;;;5092835;28;20475;-75
2020/12/24 05:03:37;;;;;;;1.20;0.70;;;;;;;;;;5093185;28;20411;-75
2020/12/24 05:06:03;;;;;;;1.67;0.80;;;;;;;;;;5093220;28;20771;-75
2020/12/24 05:08:29;;;;;;;2.07;0.90;;;;;;;;;;5092157;28;20424;-75
2020/12/24 05:11:04;;;;;;;1.70;0.83;;;;;;;;;;5093192;28;20403;-75
2020/12/24 05:13:31;;;;;;;1.20;0.70;;;;;;;;;;5073787;28;20427;-75
2020/12/24 05:15:57;;;;;;;1.20;0.80;;;;;;;;;;5091491;28;20859;-74
2020/12/24 05:18:23;;;;;;;1.60;0.70;;;;;;;;;;5091972;28;20924;-74
2020/12/24 05:20:50;;;;;;;1.97;0.80;;;;;;;;;;5091396;28;20448;-74
2020/12/24 05:23:17;;;;;;;1.20;0.70;;;;;;;;;;5096006;28;20424;-77
2020/12/24 05:25:44;;;;;;;3.90;0.80;;;;;;;;;;5097084;28;20427;-77
2020/12/24 05:28:20;;;;;;;1.30;0.87;;;;;;;;;;5096703;28;20487;-77
2020/12/24 05:30:46;;;;;;;1.40;0.90;;;;;;;;;;5097223;28;20395;-76
2020/12/24 05:33:11;;;;;;;1.77;0.80;;;;;;;;;;5096020;28;20477;-77
2020/12/24 05:35:37;;;;;;;1.20;0.70;;;;;;;;;;5095762;28;20935;-77
2020/12/24 05:38:03;;;;;;;1.40;0.80;;;;;;;;;;5096120;28;20424;-76
2020/12/24 05:40:33;;;;;;;1.50;1.00;;;;;;;;;;5096787;28;20951;-75
2020/12/24 05:43:01;;;;;;;1.83;0.90;;;;;;;;;;5096500;28;20422;-75
2020/12/24 05:45:28;;;;;;;1.20;0.70;;;;;;;;;;5096652;28;20506;-75
2020/12/24 05:48:07;;;;;;;1.30;0.80;;;;;;;;;;5095690;28;20827;-75
2020/12/24 05:50:34;;;;;;;1.20;0.70;;;;;;;;;;5096143;28;20432;-74
2020/12/24 05:53:04;;;;;;;1.53;0.80;;;;;;;;;;5095569;28;20427;-74
2020/12/24 05:55:30;;;;;;;2.33;0.80;;;;;;;;;;5096917;28;20420;-75
2020/12/24 05:57:57;;;;;;;1.23;0.80;;;;;;;;;;5096473;28;20428;-75
2020/12/24 06:00:24;;;;;;;1.20;0.70;;;;;;;;;;5096369;28;20451;-75
2020/12/24 06:02:54;;;;;;;1.20;0.70;;;;;;;;;;5095449;28;20420;-75
2020/12/24 06:05:24;;;;;;;1.20;0.70;;;;;;;;;;5078152;28;20451;-75
2020/12/24 06:08:10;;;;;;;1.37;0.83;;;;;;;;;;5076917;28;20503;-75
2020/12/24 06:10:46;;;;;;;1.50;0.83;;;;;;;;;;5096576;28;20382;-75
2020/12/24 06:13:16;;;;;;;1.23;0.77;;;;;;;;;;5095319;28;20991;-74
2020/12/24 06:15:44;;;;;;;1.20;0.90;;;;;;;;;;5096041;28;20447;-75
2020/12/24 06:18:14;;;;;;;1.73;1.03;;;;;;;;;;5077559;28;20473;-74
2020/12/24 06:20:44;;;;;;;1.20;0.70;;;;;;;;;;5095997;28;20483;-75
2020/12/24 06:23:11;;;;;;;1.50;0.93;;;;;;;;;;5092067;28;20458;-75
2020/12/24 06:25:37;;;;;;;1.20;0.70;;;;;;;;;;5096204;28;20944;-75
2020/12/24 06:28:04;;;;;;;1.20;0.80;;;;;;;;;;5094887;28;20435;-74
2020/12/24 06:30:30;;;;;;;1.30;0.90;;;;;;;;;;5095024;28;20411;-75
2020/12/24 06:32:56;;;;;;;1.87;0.80;;;;;;;;;;5094914;28;20446;-74
2020/12/24 06:35:32;;;;;;;1.80;1.00;;;;;;;;;;5095921;28;20428;-75
2020/12/24 06:37:58;;;;;;;2.43;1.23;;;;;;;;;;5094725;28;20514;-75
2020/12/24 06:40:31;;;;;;;1.40;0.90;;;;;;;;;;5095893;28;20456;-75
2020/12/24 06:42:57;;;;;;;1.30;0.90;;;;;;;;;;5095296;28;20431;-75
2020/12/24 06:45:23;;;;;;;1.20;0.80;;;;;;;;;;5095654;28;20823;-75
2020/12/24 06:48:11;;;;;;;1.50;0.80;;;;;;;;;;5094827;28;20470;-75
2020/12/24 06:50:38;;;;;;;1.50;0.90;;;;;;;;;;5095677;28;20465;-76
2020/12/24 06:53:23;;;;;;;3.20;1.03;;;;;;;;;;5094412;28;20430;-76
2020/12/24 06:56:07;;;;;;;3.37;1.00;;;;;;;;;;5094829;28;20420;-76
2020/12/24 06:58:49;;;;;;;1.30;0.80;;;;;;;;;;5094467;28;20939;-76
2020/12/24 07:01:19;;;;;;;3.17;1.03;;;;;;;;;;5095355;28;20447;-76
2020/12/24 07:03:45;;;;;;;1.37;0.93;;;;;;;;;;5094492;28;20804;-76
2020/12/24 07:06:12;;;;;;;1.93;0.90;;;;;;;;;;5095467;28;20492;-76
2020/12/24 07:08:41;;;;;;;1.73;0.80;;;;;;;;;;5094778;28;20420;-75
2020/12/24 07:11:06;;;;;;;1.33;0.83;;;;;;;;;;5095105;28;20450;-76
2020/12/24 07:13:36;;;;;;;1.20;0.80;;;;;;;;;;5094276;28;20424;-76
2020/12/24 07:16:02;;;;;;;1.50;0.80;;;;;;;;;;5095284;28;20517;-76
2020/12/24 07:18:31;;;;;;;2.43;0.90;;;;;;;;;;5094840;28;20800;-75
2020/12/24 07:21:00;;;;;;;1.30;0.80;;;;;;;;;;5095194;28;20455;-76
2020/12/24 07:23:33;;;;;;;1.40;0.90;;;;;;;;;;5089569;28;20519;-74
2020/12/24 07:26:00;;;;;;;1.50;1.00;;;;;;;;;;5093849;28;20412;-75
2020/12/24 07:28:30;;;;;;;2.20;0.90;;;;;;;;;;5093783;28;20424;-74
2020/12/24 07:30:57;;;;;;;1.40;0.90;;;;;;;;;;5076731;28;20408;-75
2020/12/24 07:33:23;;;;;;;1.50;1.00;;;;;;;;;;5093998;28;20947;-75
2020/12/24 07:35:49;;;;;;;1.63;1.03;;;;;;;;;;5094903;28;20523;-75
2020/12/24 07:38:18;;;;;;;1.40;0.90;;;;;;;;;;5094335;28;20420;-75
2020/12/24 07:40:45;;;;;;;3.00;0.97;;;;;;;;;;5094543;28;20456;-76
2020/12/24 07:43:11;;;;;;;1.63;0.90;;;;;;;;;;5093401;28;20897;-75
2020/12/24 07:45:38;;;;;;;1.60;0.90;;;;;;;;;;5094681;28;20431;-75
2020/12/24 07:48:09;;;;;;;3.97;1.10;;;;;;;;;;5092895;28;20524;-75
2020/12/24 07:50:35;;;;;;;1.70;1.10;;;;;;;;;;5072891;28;20443;-75
2020/12/24 07:53:02;;;;;;;1.70;0.87;;;;;;;;;;5094360;28;20404;-76
2020/12/24 07:55:28;;;;;;;1.70;1.00;;;;;;;;;;5093696;28;20427;-74
2020/12/24 07:58:07;;;;;;;1.70;0.73;;;;;;;;;;5094228;28;20436;-75
2020/12/24 08:00:41;;;;;;;1.40;0.80;;;;;;;;;;5093101;28;20494;-74
2020/12/24 08:03:07;;;;;;;1.63;1.00;;;;;;;;;;5094165;28;20763;-75
2020/12/24 08:05:33;;;;;;;1.30;0.80;;;;;;;;;;5074806;28;20429;-74
2020/12/24 08:07:59;;;;;;;1.30;0.77;;;;;;;;;;5094355;28;20417;-75
2020/12/24 08:10:25;;;;;;;1.80;1.10;;;;;;;;;;5093286;28;20483;-74
2020/12/24 08:12:51;;;;;;;1.50;0.83;;;;;;;;;;5094076;28;20901;-75
2020/12/24 08:15:18;;;;;;;3.30;1.10;;;;;;;;;;5092345;28;20555;-75
2020/12/24 08:17:54;;;;;;;1.50;0.90;;;;;;;;;;5092724;28;20432;-75
2020/12/24 08:20:20;;;;;;;1.73;1.03;;;;;;;;;;5092930;28;20434;-74
2020/12/24 08:22:59;;;;;;;1.77;0.83;;;;;;;;;;5093287;28;20424;-75
2020/12/24 08:25:25;;;;;;;1.53;0.90;;;;;;;;;;5088199;28;20448;-74
2020/12/24 08:27:52;;;;;;;4.33;1.13;;;;;;;;;;5093183;28;20416;-75
2020/12/24 08:30:18;;;;;;;1.50;1.10;;;;;;;;;;5093622;28;20471;-75
2020/12/24 08:32:45;;;;;;;2.23;0.97;;;;;;;;;;5092890;28;20494;-75
2020/12/24 08:35:12;;;;;;;1.70;1.00;;;;;;;;;;5093500;28;20415;-75
2020/12/24 08:37:38;;;;;;;1.83;1.10;;;;;;;;;;5090871;28;20448;-75
2020/12/24 08:40:24;;;;;;;2.00;1.00;;;;;;;;;;5092932;28;20495;-75
2020/12/24 08:42:52;;;;;;;1.40;1.00;;;;;;;;;;5091253;28;20420;-75
2020/12/24 08:45:18;;;;;;;2.07;1.37;;;;;;;;;;5092603;28;20436;-75
2020/12/24 08:47:44;;;;;;;1.50;0.90;;;;;;;;;;5089732;28;20884;-74
2020/12/24 08:50:10;;;;;;;1.97;1.00;;;;;;;;;;5092099;28;20412;-71
2020/12/24 08:52:37;;;;;;;3.73;1.20;;;;;;;;;;5090581;28;20412;-70
2020/12/24 08:55:07;;;;;;;1.90;1.30;;;;;;;;;;5092123;28;20439;-71
2020/12/24 08:57:34;;;;;;;1.50;1.30;;;;;;;;;;5091679;28;20448;-71
2020/12/24 09:00:01;;;;;;;3.10;0.90;;;;;;;;;;5093141;28;20411;-71
2020/12/24 09:02:27;;;;;;;2.60;1.00;;;;;;;;;;5092242;28;20822;-71
2020/12/24 09:04:56;;;;;;;1.30;0.90;;;;;;;;;;5092826;28;20440;-71
2020/12/24 09:07:26;;;;;;;1.20;0.70;;;;;;;;;;5090772;28;20416;-70
2020/12/24 09:10:02;;;;;;;1.67;0.90;;;;;;;;;;5092950;28;20420;-70
2020/12/24 09:12:28;;;;;;;1.40;0.90;;;;;;;;;;5091103;28;20441;-69
2020/12/24 09:15:01;;;;;;;1.43;0.90;;;;;;;;;;5090363;28;20478;-68
2020/12/24 09:17:27;;;;;;;1.40;0.80;;;;;;;;;;5087033;28;20431;-68
2020/12/24 09:20:01;;;;;;;1.30;0.90;;;;;;;;;;5091417;28;20758;-68
2020/12/24 09:22:27;;;;;;;1.33;0.80;;;;;;;;;;5089943;28;20452;-68
2020/12/24 09:24:53;;;;;;;2.33;1.00;;;;;;;;;;5092900;28;20420;-68
2020/12/24 09:27:19;;;;;;;1.30;0.70;;;;;;;;;;5089684;28;20415;-68
2020/12/24 09:29:45;;;;;;;1.37;0.80;;;;;;;;;;5092214;28;20404;-68
2020/12/24 09:32:12;;;;;;;1.30;0.90;;;;;;;;;;5091271;28;21042;-68
2020/12/24 09:34:38;;;;;;;2.10;1.00;;;;;;;;;;5089338;28;20432;-69
2020/12/24 09:37:04;;;;;;;2.00;1.30;;;;;;;;;;5090829;28;20424;-69
2020/12/24 09:39:30;;;;;;;2.07;1.00;;;;;;;;;;5090637;28;20404;-69
2020/12/24 09:41:56;;;;;;;3.10;0.83;;;;;;;;;;5086534;28;20448;-68
2020/12/24 09:44:22;;;;;;;19.40;3.00;;;;;;;;;;5083680;28;20473;-70
2020/12/24 09:46:49;;;;;;;1.70;1.00;;;;;;;;;;5090930;28;20966;-70
2020/12/24 09:49:15;;;;;;;1.30;0.80;;;;;;;;;;5091679;28;20428;-72
2020/12/24 09:51:41;;;;;;;1.50;1.00;;;;;;;;;;5091019;28;20420;-70
2020/12/24 09:54:07;;;;;;;1.97;1.00;;;;;;;;;;5092683;28;21151;-69
2020/12/24 09:56:34;;;;;;;1.90;1.30;;;;;;;;;;5090925;28;20568;-72
2020/12/24 09:59:00;;;;;;;3.00;1.10;;;;;;;;;;5088320;28;20525;-71
2020/12/24 10:01:26;;;;;;;1.40;1.00;;;;;;;;;;5092333;28;20500;-71
2020/12/24 10:03:52;;;;;;;5.00;2.63;;;;;;;;;;5091796;28;20420;-71
2020/12/24 10:06:18;;;;;;;2.90;1.13;;;;;;;;;;5095343;28;20412;-72
2020/12/24 10:08:44;;;;;;;3.60;1.27;;;;;;;;;;5094859;28;20424;-71
2020/12/24 10:11:14;;;;;;;6.17;1.60;;;;;;;;;;5076301;28;20415;-72
2020/12/24 10:13:40;;;;;;;1.80;1.10;;;;;;;;;;5094113;28;20423;-72
2020/12/24 10:16:07;;;;;;;1.63;1.10;;;;;;;;;;5096828;28;20500;-68
2020/12/24 10:18:33;;;;;;;2.13;1.20;;;;;;;;;;5094250;28;20532;-72
2020/12/24 10:20:59;;;;;;;1.90;1.03;;;;;;;;;;5095678;28;20467;-69
2020/12/24 10:23:25;;;;;;;1.93;1.10;;;;;;;;;;5088665;28;20412;-69
2020/12/24 10:25:51;;;;;;;1.80;1.20;;;;;;;;;;5094731;28;20505;-68
2020/12/24 10:28:17;;;;;;;1.80;0.97;;;;;;;;;;5089045;28;20430;-70
2020/12/24 10:30:43;;;;;;;2.00;1.10;;;;;;;;;;5093821;28;20795;-70
2020/12/24 10:33:09;;;;;;;1.43;0.80;;;;;;;;;;5090967;28;20863;-69
2020/12/24 10:35:36;;;;;;;4.97;1.00;;;;;;;;;;5079192;28;20438;-68
2020/12/24 10:38:03;;;;;;;1.87;1.00;;;;;;;;;;5095165;28;20450;-69
2020/12/24 10:40:30;;;;;;;2.30;0.90;;;;;;;;;;5095295;28;20491;-67
2020/12/24 10:42:56;;;;;;;1.40;0.83;;;;;;;;;;5093836;28;20436;-70
2020/12/24 10:45:22;;;;;;;1.93;1.00;;;;;;;;;;5094104;28;20428;-69
2020/12/24 10:47:49;;;;;;;3.50;0.93;;;;;;;;;;5094134;28;20408;-67
2020/12/24 10:50:15;;;;;;;1.60;0.93;;;;;;;;;;5094040;28;20889;-68
2020/12/24 10:52:41;;;;;;;2.93;1.03;;;;;;;;;;5092977;28;20821;-70
2020/12/24 10:55:07;;;;;;;1.60;1.00;;;;;;;;;;5094408;28;20428;-74
2020/12/24 10:57:33;;;;;;;2.90;1.10;;;;;;;;;;5095145;28;20396;-70
2020/12/24 10:59:59;;;;;;;1.50;0.90;;;;;;;;;;5093470;28;20759;-71
2020/12/24 11:02:25;;;;;;;1.60;0.80;;;;;;;;;;5094685;28;20484;-70
2020/12/24 11:04:51;;;;;;;3.20;1.10;;;;;;;;;;5092231;28;21008;-69
2020/12/24 11:07:17;;;;;;;2.23;1.00;;;;;;;;;;5092353;28;20414;-69
2020/12/24 11:09:43;;;;;;;1.40;0.80;;;;;;;;;;5094343;28;20761;-70
2020/12/24 11:12:09;;;;;;;2.40;1.00;;;;;;;;;;5094431;28;20412;-70
2020/12/24 11:14:35;;;;;;;1.60;0.90;;;;;;;;;;5093050;28;20943;-71
2020/12/24 11:17:02;;;;;;;2.57;1.37;;;;;;;;;;5093919;28;20768;-72
2020/12/24 11:19:28;;;;;;;1.50;0.90;;;;;;;;;;5094108;28;20424;-70
2020/12/24 11:21:54;;;;;;;5.40;0.83;;;;;;;;;;5094287;28;20448;-69
2020/12/24 11:24:20;;;;;;;1.47;1.00;;;;;;;;;;5091353;28;20807;-69
2020/12/24 11:26:46;;;;;;;1.97;0.90;;;;;;;;;;5093171;28;20416;-69
2020/12/24 11:29:12;;;;;;;3.40;0.87;;;;;;;;;;5085531;28;20924;-71
2020/12/24 11:31:38;;;;;;;2.00;0.83;;;;;;;;;;5089243;28;20466;-71
2020/12/24 11:34:05;;;;;;;2.07;1.10;;;;;;;;;;5093743;28;20825;-71
2020/12/24 11:36:32;;;;;;;1.83;1.00;;;;;;;;;;5094984;28;20482;-72
2020/12/24 11:38:59;;;;;;;1.90;1.10;;;;;;;;;;5093557;28;20435;-71
2020/12/24 11:41:26;;;;;;;1.50;1.00;;;;;;;;;;5094495;28;20971;-72
2020/12/24 11:43:53;;;;;;;1.50;1.00;;;;;;;;;;5093443;28;20424;-71
2020/12/24 11:46:20;;;;;;;1.40;0.90;;;;;;;;;;5094473;28;20404;-72
2020/12/24 11:48:47;;;;;;;2.47;1.03;;;;;;;;;;5093876;28;20469;-71
2020/12/24 11:51:13;;;;;;;1.40;0.80;;;;;;;;;;5094800;28;20491;-72
2020/12/24 11:53:40;;;;;;;3.37;1.00;;;;;;;;;;5090358;28;20467;-72
2020/12/24 11:56:06;;;;;;;3.10;1.37;;;;;;;;;;5088750;28;20478;-72
2020/12/24 11:58:32;;;;;;;2.60;1.10;;;;;;;;;;5101910;28;20782;-69
2020/12/24 12:00:58;;;;;;;1.50;0.90;;;;;;;;;;5094310;28;20448;-69
2020/12/24 12:03:24;;;;;;;3.20;1.20;;;;;;;;;;5093644;28;20507;-68
2020/12/24 12:05:50;;;;;;;1.60;0.90;;;;;;;;;;5100096;28;20417;-70
2020/12/24 12:08:17;;;;;;;2.33;1.10;;;;;;;;;;5099242;28;20411;-69
2020/12/24 12:10:43;;;;;;;4.67;1.30;;;;;;;;;;5100246;28;20911;-77
2020/12/24 12:13:09;;;;;;;1.30;0.70;;;;;;;;;;5099289;28;20416;-70
2020/12/24 12:15:35;;;;;;;3.63;1.00;;;;;;;;;;5092537;28;20978;-71
2020/12/24 12:18:01;;;;;;;2.70;0.90;;;;;;;;;;5093841;28;20413;-71
2020/12/24 12:20:27;;;;;;;1.30;0.80;;;;;;;;;;5093059;28;20416;-71
2020/12/24 12:22:54;;;;;;;1.77;1.20;;;;;;;;;;5091812;28;20404;-71
2020/12/24 12:25:20;;;;;;;1.90;0.90;;;;;;;;;;5092478;28;20452;-70
2020/12/24 12:27:47;;;;;;;1.40;0.80;;;;;;;;;;5092767;28;20427;-72
2020/12/24 12:30:13;;;;;;;1.53;0.87;;;;;;;;;;5091467;28;20836;-72
2020/12/24 12:32:39;;;;;;;1.40;0.83;;;;;;;;;;5089579;28;20424;-70
2020/12/24 12:35:06;;;;;;;1.73;1.00;;;;;;;;;;5092603;28;20527;-70
2020/12/24 12:37:38;;;;;;;5.57;1.07;;;;;;;;;;5093666;28;20400;-69
2020/12/24 12:40:05;;;;;;;1.40;0.87;;;;;;;;;;5088861;28;20420;-68
2020/12/24 12:42:31;;;;;;;1.73;1.00;;;;;;;;;;5073863;28;20802;-68
2020/12/24 12:44:58;;;;;;;1.70;0.80;;;;;;;;;;5088125;28;20451;-68
2020/12/24 12:47:24;;;;;;;2.73;0.83;;;;;;;;;;5092809;28;20473;-69
2020/12/24 12:49:50;;;;;;;1.40;0.80;;;;;;;;;;5088974;28;20432;-68
2020/12/24 12:52:16;;;;;;;1.40;0.83;;;;;;;;;;5093570;28;20405;-69
2020/12/24 12:54:42;;;;;;;1.60;1.00;;;;;;;;;;5092821;28;20779;-68
2020/12/24 12:57:08;;;;;;;3.97;1.43;;;;;;;;;;5093608;28;20491;-69
2020/12/24 12:59:34;;;;;;;1.53;0.90;;;;;;;;;;5092694;28;20888;-67
2020/12/24 13:02:00;;;;;;;2.10;0.87;;;;;;;;;;5093465;28;20454;-68
2020/12/24 13:04:26;;;;;;;1.90;0.90;;;;;;;;;;5092499;28;20939;-68
2020/12/24 13:06:52;;;;;;;1.67;0.90;;;;;;;;;;5092135;28;20416;-69
2020/12/24 13:09:18;;;;;;;1.30;0.90;;;;;;;;;;5092846;28;20427;-69
2020/12/24 13:11:48;;;;;;;2.07;1.00;;;;;;;;;;5093224;28;20396;-69
2020/12/24 13:14:18;;;;;;;4.63;1.20;;;;;;;;;;5088990;28;20516;-69
2020/12/24 13:16:45;;;;;;;2.23;0.80;;;;;;;;;;5090972;28;20427;-69
2020/12/24 13:19:11;;;;;;;2.00;0.80;;;;;;;;;;5090514;28;20473;-67
2020/12/24 13:21:37;;;;;;;1.50;0.80;;;;;;;;;;5093416;28;20455;-67
2020/12/24 13:24:03;;;;;;;1.50;0.80;;;;;;;;;;5092572;28;20439;-71
2020/12/24 13:26:29;;;;;;;2.13;0.90;;;;;;;;;;5092856;28;20507;-73
2020/12/24 13:28:56;;;;;;;5.67;1.20;;;;;;;;;;5091395;28;20442;-73
2020/12/24 13:31:22;;;;;;;1.30;0.90;;;;;;;;;;5075449;28;20499;-72
2020/12/24 13:33:48;;;;;;;1.60;0.70;;;;;;;;;;5070871;28;20553;-73
2020/12/24 13:36:14;;;;;;;1.63;1.10;;;;;;;;;;5090307;28;20483;-72
2020/12/24 13:38:40;;;;;;;2.57;1.37;;;;;;;;;;5090199;28;20423;-72
2020/12/24 13:41:06;;;;;;;1.40;0.80;;;;;;;;;;5095935;28;20834;-71
2020/12/24 13:43:32;;;;;;;1.30;0.70;;;;;;;;;;5094177;28;20916;-71
2020/12/24 13:45:58;;;;;;;1.40;0.80;;;;;;;;;;5093377;28;20463;-71
2020/12/24 13:48:24;;;;;;;2.07;1.00;;;;;;;;;;5107059;28;20416;-72
2020/12/24 13:50:52;;;;;;;1.40;0.90;;;;;;;;;;5093144;28;20803;-72
2020/12/24 13:53:18;;;;;;;1.50;0.87;;;;;;;;;;5095998;28;20527;-72
2020/12/24 13:55:44;;;;;;;1.43;0.90;;;;;;;;;;5096397;28;20545;-72
2020/12/24 13:58:10;;;;;;;2.63;0.90;;;;;;;;;;5096413;28;20400;-72
2020/12/24 14:00:36;;;;;;;1.70;1.07;;;;;;;;;;5095612;28;20604;-71
2020/12/24 14:03:02;;;;;;;2.63;1.13;;;;;;;;;;5096330;28;20904;-72
2020/12/24 14:05:28;;;;;;;2.27;0.90;;;;;;;;;;5096100;28;20561;-71
2020/12/24 14:07:54;;;;;;;3.70;1.20;;;;;;;;;;5096400;28;20415;-72
2020/12/24 14:10:20;;;;;;;1.50;1.03;;;;;;;;;;5094719;28;20519;-71
2020/12/24 14:12:46;;;;;;;2.97;1.37;;;;;;;;;;5096672;28;20414;-72
2020/12/24 14:15:12;;;;;;;1.50;0.80;;;;;;;;;;5093026;28;20503;-72
2020/12/24 14:17:38;;;;;;;1.30;1.00;;;;;;;;;;5095991;28;20408;-72
2020/12/24 14:20:04;;;;;;;7.67;1.30;;;;;;;;;;5095844;28;20944;-74
2020/12/24 14:22:30;;;;;;;1.40;0.90;;;;;;;;;;5095929;28;20968;-72
2020/12/24 14:24:56;;;;;;;1.30;0.70;;;;;;;;;;5095397;28;20412;-73
2020/12/24 14:27:22;;;;;;;1.70;0.87;;;;;;;;;;5095533;28;20408;-72
2020/12/24 14:29:48;;;;;;;3.00;1.07;;;;;;;;;;5096001;28;20538;-72
2020/12/24 14:32:14;;;;;;;2.33;0.90;;;;;;;;;;5093467;28;20790;-72
2020/12/24 14:34:40;;;;;;;2.13;0.90;;;;;;;;;;5095795;28;20428;-72
2020/12/24 14:37:06;;;;;;;1.87;0.83;;;;;;;;;;5092904;28;20464;-71
2020/12/24 14:39:33;;;;;;;2.37;1.30;;;;;;;;;;5096093;28;20455;-72
2020/12/24 14:41:59;;;;;;;1.60;1.00;;;;;;;;;;5094715;28;20460;-72